createdAt,value
2019-05-19T00:01:26.181Z,14.84
2019-05-19T00:03:53.260Z,14.80
2019-05-19T00:06:20.347Z,14.78
2019-05-19T00:08:47.395Z,14.77
2019-05-19T00:11:14.491Z,14.78
2019-05-19T00:13:41.570Z,14.78
2019-05-19T00:16:09.911Z,14.76
2019-05-19T00:18:41.668Z,14.74
2019-05-19T00:21:10.549Z,14.72
2019-05-19T00:23:37.680Z,14.68
2019-05-19T00:26:04.959Z,14.68
2019-05-19T00:28:32.117Z,14.65
2019-05-19T00:31:02.211Z,14.62
2019-05-19T00:33:31.762Z,14.60
2019-05-19T00:35:58.886Z,14.57
2019-05-19T00:38:26.008Z,14.53
2019-05-19T00:40:55.560Z,14.51
2019-05-19T00:43:26.737Z,14.51
2019-05-19T00:45:53.964Z,14.49
2019-05-19T00:48:21.037Z,14.48
2019-05-19T00:50:50.814Z,14.48
2019-05-19T00:53:17.891Z,14.48
2019-05-19T00:55:45.172Z,14.49
2019-05-19T00:58:13.235Z,14.50
2019-05-19T01:00:40.448Z,14.51
2019-05-19T01:03:07.604Z,14.50
2019-05-19T01:05:34.720Z,14.48
2019-05-19T01:08:01.896Z,14.48
2019-05-19T01:10:30.107Z,14.45
2019-05-19T01:12:57.257Z,14.43
2019-05-19T01:15:24.320Z,14.45
2019-05-19T01:17:53.316Z,14.44
2019-05-19T01:20:23.278Z,14.44
2019-05-19T01:22:50.474Z,14.43
2019-05-19T01:25:17.827Z,14.42
2019-05-19T01:27:46.014Z,14.42
2019-05-19T01:30:13.698Z,14.43
2019-05-19T01:32:40.856Z,14.42
2019-05-19T01:35:08.200Z,14.42
2019-05-19T01:37:35.299Z,14.39
2019-05-19T01:40:02.750Z,14.35
2019-05-19T01:42:30.278Z,14.30
2019-05-19T01:44:57.358Z,14.25
2019-05-19T01:47:24.431Z,14.20
2019-05-19T01:49:51.499Z,14.19
2019-05-19T01:52:18.806Z,14.18
2019-05-19T01:54:45.879Z,14.19
2019-05-19T01:57:12.952Z,14.18
2019-05-19T01:59:40.052Z,14.18
2019-05-19T02:02:07.131Z,14.16
2019-05-19T02:04:34.250Z,14.15
2019-05-19T02:07:01.328Z,14.15
2019-05-19T02:09:28.399Z,14.14
2019-05-19T02:11:55.482Z,14.13
2019-05-19T02:14:22.548Z,14.13
2019-05-19T02:16:49.632Z,14.10
2019-05-19T02:19:16.699Z,14.06
2019-05-19T02:21:43.822Z,14.04
2019-05-19T02:24:10.917Z,13.98
2019-05-19T02:26:37.992Z,13.96
2019-05-19T02:29:05.070Z,13.95
2019-05-19T02:31:32.150Z,13.93
2019-05-19T02:33:59.326Z,13.92
2019-05-19T02:36:26.410Z,13.88
2019-05-19T02:38:53.488Z,13.85
2019-05-19T02:41:23.764Z,13.82
2019-05-19T02:43:52.776Z,13.79
2019-05-19T02:46:20.163Z,13.78
2019-05-19T02:48:48.976Z,13.81
2019-05-19T02:51:17.663Z,13.81
2019-05-19T02:53:45.238Z,13.84
2019-05-19T02:56:12.822Z,13.85
2019-05-19T02:58:40.932Z,13.86
2019-05-19T03:01:08.042Z,13.90
2019-05-19T03:03:35.089Z,13.91
2019-05-19T03:06:02.157Z,13.88
2019-05-19T03:08:29.238Z,13.90
2019-05-19T03:10:56.339Z,13.90
2019-05-19T03:13:23.430Z,13.91
2019-05-19T03:15:50.522Z,13.92
2019-05-19T03:18:17.617Z,13.90
2019-05-19T03:20:44.691Z,13.85
2019-05-19T03:23:11.752Z,13.80
2019-05-19T03:25:38.851Z,13.76
2019-05-19T03:28:05.968Z,13.75
2019-05-19T03:30:51.364Z,13.73
2019-05-19T03:33:21.184Z,13.73
2019-05-19T03:35:48.325Z,13.72
2019-05-19T03:38:15.425Z,13.71
2019-05-19T03:40:42.493Z,13.74
2019-05-19T03:43:09.578Z,13.78
2019-05-19T03:45:36.654Z,13.75
2019-05-19T03:48:03.777Z,13.72
2019-05-19T03:50:30.848Z,13.71
2019-05-19T03:52:57.909Z,13.71
2019-05-19T03:55:24.970Z,13.71
2019-05-19T03:57:52.057Z,13.69
2019-05-19T04:00:19.223Z,13.69
2019-05-19T04:02:46.303Z,13.70
2019-05-19T04:05:13.389Z,13.72
2019-05-19T04:07:40.453Z,13.71
2019-05-19T04:10:07.930Z,13.69
2019-05-19T04:12:35.011Z,13.66
2019-05-19T04:15:02.087Z,13.64
2019-05-19T04:17:29.175Z,13.64
2019-05-19T04:19:56.238Z,13.65
2019-05-19T04:22:23.315Z,13.65
2019-05-19T04:24:50.553Z,13.69
2019-05-19T04:27:17.655Z,13.72
2019-05-19T04:29:44.738Z,13.75
2019-05-19T04:32:11.797Z,13.79
2019-05-19T04:34:38.872Z,13.82
2019-05-19T04:37:05.985Z,13.85
2019-05-19T04:39:33.052Z,13.86
2019-05-19T04:42:00.121Z,13.88
2019-05-19T04:44:27.205Z,13.90
2019-05-19T04:46:54.268Z,13.92
2019-05-19T04:49:21.350Z,13.97
2019-05-19T04:52:05.192Z,14.03
2019-05-19T04:54:17.420Z,14.10
2019-05-19T04:56:44.508Z,14.17
2019-05-19T04:59:11.570Z,14.22
2019-05-19T05:01:38.634Z,14.21
2019-05-19T05:04:05.723Z,14.22
2019-05-19T05:06:32.799Z,14.26
2019-05-19T05:08:59.871Z,14.31
2019-05-19T05:11:26.937Z,14.35
2019-05-19T05:13:54.012Z,14.37
2019-05-19T05:16:21.095Z,14.39
2019-05-19T05:18:48.166Z,14.43
2019-05-19T05:21:15.256Z,14.47
2019-05-19T05:23:42.375Z,14.51
2019-05-19T05:26:09.442Z,14.55
2019-05-19T05:28:36.502Z,14.59
2019-05-19T05:31:03.583Z,14.62
2019-05-19T05:33:30.693Z,14.65
2019-05-19T05:35:57.774Z,14.67
2019-05-19T05:38:24.868Z,14.65
2019-05-19T05:40:51.943Z,14.64
2019-05-19T05:43:19.056Z,14.63
2019-05-19T05:45:46.232Z,14.60
2019-05-19T05:48:15.117Z,14.57
2019-05-19T05:50:42.242Z,14.52
2019-05-19T05:53:09.306Z,14.51
2019-05-19T05:55:36.429Z,14.47
2019-05-19T05:58:03.537Z,14.45
2019-05-19T06:00:30.595Z,14.46
2019-05-19T06:02:57.676Z,14.43
2019-05-19T06:05:24.773Z,14.42
2019-05-19T06:07:51.871Z,14.43
2019-05-19T06:10:18.941Z,14.47
2019-05-19T06:12:46.012Z,14.50
2019-05-19T06:15:13.902Z,14.53
2019-05-19T06:17:40.980Z,14.57
2019-05-19T06:20:08.648Z,14.54
2019-05-19T06:22:36.183Z,14.53
2019-05-19T06:25:03.528Z,14.54
2019-05-19T06:27:30.580Z,14.58
2019-05-19T06:29:57.645Z,14.54
2019-05-19T06:32:31.782Z,14.53
2019-05-19T06:34:58.851Z,14.56
2019-05-19T06:37:25.940Z,14.59
2019-05-19T06:39:53.014Z,14.64
2019-05-19T06:42:20.103Z,14.69
2019-05-19T06:44:47.194Z,14.77
2019-05-19T06:47:14.302Z,14.85
2019-05-19T06:49:41.372Z,14.93
2019-05-19T06:52:08.481Z,14.99
2019-05-19T06:54:35.564Z,15.04
2019-05-19T06:57:02.739Z,15.12
2019-05-19T06:59:29.790Z,15.16
2019-05-19T07:01:56.901Z,15.20
2019-05-19T07:04:23.935Z,15.25
2019-05-19T07:06:51.118Z,15.30
2019-05-19T07:09:18.453Z,15.33
2019-05-19T07:11:45.563Z,15.35
2019-05-19T07:14:12.634Z,15.39
2019-05-19T07:16:39.704Z,15.45
2019-05-19T07:19:06.795Z,15.49
2019-05-19T07:21:33.888Z,15.53
2019-05-19T07:24:00.971Z,15.58
2019-05-19T07:26:28.078Z,15.64
2019-05-19T07:28:55.170Z,15.71
2019-05-19T07:31:22.263Z,15.74
2019-05-19T07:33:49.351Z,15.80
2019-05-19T07:36:16.423Z,15.84
2019-05-19T07:38:43.546Z,15.91
2019-05-19T07:41:10.610Z,15.93
2019-05-19T07:43:37.684Z,15.97
2019-05-19T07:46:04.931Z,16.02
2019-05-19T07:48:31.992Z,16.09
2019-05-19T07:50:59.075Z,16.11
2019-05-19T07:53:26.255Z,16.13
2019-05-19T07:55:53.388Z,16.18
2019-05-19T07:58:20.495Z,16.26
2019-05-19T08:00:47.659Z,16.32
2019-05-19T08:03:14.729Z,16.36
2019-05-19T08:05:41.832Z,16.43
2019-05-19T08:08:08.995Z,16.50
2019-05-19T08:10:36.167Z,16.57
2019-05-19T08:13:03.366Z,16.66
2019-05-19T08:15:30.506Z,16.79
2019-05-19T08:17:57.578Z,16.93
2019-05-19T08:20:25.800Z,17.02
2019-05-19T08:22:53.186Z,17.07
2019-05-19T08:25:20.259Z,17.13
2019-05-19T08:27:47.353Z,17.22
2019-05-19T08:30:14.792Z,17.27
2019-05-19T08:32:41.873Z,17.33
2019-05-19T08:35:09.168Z,17.39
2019-05-19T08:37:36.265Z,17.44
2019-05-19T08:40:03.597Z,17.49
2019-05-19T08:42:30.675Z,17.55
2019-05-19T08:44:57.786Z,17.61
2019-05-19T08:47:24.909Z,17.69
2019-05-19T08:49:51.965Z,17.73
2019-05-19T08:52:19.039Z,17.80
2019-05-19T08:54:46.117Z,17.83
2019-05-19T08:57:13.194Z,17.87
2019-05-19T08:59:40.280Z,17.90
2019-05-19T09:02:07.384Z,17.91
2019-05-19T09:04:34.518Z,17.91
2019-05-19T09:07:01.623Z,17.88
2019-05-19T09:09:28.679Z,17.86
2019-05-19T09:11:55.779Z,17.84
2019-05-19T09:14:22.839Z,17.85
2019-05-19T09:16:49.935Z,17.89
2019-05-19T09:19:17.016Z,17.91
2019-05-19T09:21:44.083Z,17.90
2019-05-19T09:24:11.165Z,17.90
2019-05-19T09:26:38.245Z,17.87
2019-05-19T09:29:05.390Z,17.77
2019-05-19T09:31:32.427Z,17.68
2019-05-19T09:33:59.478Z,17.62
2019-05-19T09:36:26.563Z,17.67
2019-05-19T09:38:53.790Z,17.72
2019-05-19T09:41:21.231Z,17.76
2019-05-19T09:43:48.438Z,17.79
2019-05-19T09:46:15.510Z,17.85
2019-05-19T09:48:42.655Z,17.88
2019-05-19T09:51:09.747Z,17.84
2019-05-19T09:53:36.832Z,17.79
2019-05-19T09:56:03.905Z,17.74
2019-05-19T09:58:30.999Z,17.78
2019-05-19T10:00:58.080Z,17.86
2019-05-19T10:03:25.153Z,17.96
2019-05-19T10:05:52.264Z,18.08
2019-05-19T10:08:34.911Z,18.17
2019-05-19T10:11:55.198Z,18.28
2019-05-19T10:14:22.450Z,18.36
2019-05-19T10:16:52.743Z,18.45
2019-05-19T10:19:21.032Z,18.50
2019-05-19T10:21:48.305Z,18.57
2019-05-19T10:24:15.660Z,18.56
2019-05-19T10:26:42.724Z,18.56
2019-05-19T10:29:09.830Z,18.56
2019-05-19T10:31:36.929Z,18.54
2019-05-19T10:34:04.068Z,18.54
2019-05-19T10:36:31.163Z,18.53
2019-05-19T10:38:58.334Z,18.53
2019-05-19T10:41:27.573Z,18.54
2019-05-19T10:44:01.015Z,18.54
2019-05-19T10:46:28.468Z,18.56
2019-05-19T10:48:55.820Z,18.60
2019-05-19T10:51:23.231Z,18.62
2019-05-19T10:53:50.700Z,18.66
2019-05-19T10:56:19.176Z,18.68
2019-05-19T10:58:46.516Z,18.75
2019-05-19T11:01:13.586Z,18.82
2019-05-19T11:03:40.680Z,18.90
2019-05-19T11:06:07.851Z,18.97
2019-05-19T11:08:35.006Z,19.04
2019-05-19T11:11:02.691Z,19.06
2019-05-19T11:13:29.763Z,19.07
2019-05-19T11:15:56.862Z,19.09
2019-05-19T11:18:23.983Z,19.12
2019-05-19T11:20:51.082Z,19.17
2019-05-19T11:23:18.169Z,19.20
2019-05-19T11:25:51.424Z,19.24
2019-05-19T11:28:14.286Z,19.25
2019-05-19T11:30:41.368Z,19.26
2019-05-19T11:33:08.438Z,19.25
2019-05-19T11:35:35.537Z,19.24
2019-05-19T11:38:02.781Z,19.21
2019-05-19T11:40:29.861Z,19.18
2019-05-19T11:42:58.403Z,19.15
2019-05-19T11:45:25.553Z,19.13
2019-05-19T11:47:52.630Z,19.12
2019-05-19T11:50:20.524Z,19.13
2019-05-19T11:52:47.588Z,19.14
2019-05-19T11:55:14.663Z,19.12
2019-05-19T11:57:41.732Z,19.16
2019-05-19T12:00:09.036Z,19.20
2019-05-19T12:02:36.105Z,19.25
2019-05-19T12:05:03.618Z,19.29
2019-05-19T12:07:30.695Z,19.29
2019-05-19T12:09:57.754Z,19.24
2019-05-19T12:12:24.858Z,19.18
2019-05-19T12:14:51.960Z,19.18
2019-05-19T12:17:19.053Z,19.18
2019-05-19T12:19:46.127Z,19.21
2019-05-19T12:22:13.287Z,19.23
2019-05-19T12:24:41.497Z,19.28
2019-05-19T12:27:08.587Z,19.33
2019-05-19T12:29:35.792Z,19.37
2019-05-19T12:32:02.990Z,19.43
2019-05-19T12:34:30.182Z,19.51
2019-05-19T12:36:57.351Z,19.60
2019-05-19T12:39:24.414Z,19.68
2019-05-19T12:41:51.543Z,19.74
2019-05-19T12:44:18.614Z,19.82
2019-05-19T12:46:45.679Z,19.88
2019-05-19T12:49:12.749Z,19.95
2019-05-19T12:51:39.820Z,19.96
2019-05-19T12:54:06.898Z,19.97
2019-05-19T12:56:39.725Z,19.96
2019-05-19T12:59:03.004Z,19.96
2019-05-19T13:01:30.072Z,19.97
2019-05-19T13:03:57.150Z,19.94
2019-05-19T13:06:24.226Z,19.92
2019-05-19T13:08:51.299Z,19.89
2019-05-19T13:11:18.371Z,19.86
2019-05-19T13:13:45.438Z,19.80
2019-05-19T13:16:12.504Z,19.73
2019-05-19T13:18:39.575Z,19.67
2019-05-19T13:21:06.642Z,19.63
2019-05-19T13:23:33.728Z,19.61
2019-05-19T13:26:00.798Z,19.61
2019-05-19T13:28:27.879Z,19.58
2019-05-19T13:30:54.948Z,19.57
2019-05-19T13:33:23.173Z,19.59
2019-05-19T13:35:50.278Z,19.62
2019-05-19T13:38:17.349Z,19.62
2019-05-19T13:40:45.807Z,19.63
2019-05-19T13:43:19.762Z,19.66
2019-05-19T13:45:46.979Z,19.70
2019-05-19T13:48:15.090Z,19.71
2019-05-19T13:50:42.223Z,19.73
2019-05-19T13:53:10.655Z,19.78
2019-05-19T13:55:37.711Z,19.86
2019-05-19T13:58:04.804Z,19.96
2019-05-19T14:00:31.888Z,20.04
2019-05-19T14:02:58.995Z,20.05
2019-05-19T14:05:26.091Z,20.07
2019-05-19T14:07:53.160Z,20.09
2019-05-19T14:10:20.267Z,20.11
2019-05-19T14:12:47.374Z,20.12
2019-05-19T14:15:14.500Z,20.13
2019-05-19T14:17:41.575Z,20.13
2019-05-19T14:20:08.981Z,20.15
2019-05-19T14:22:36.087Z,20.18
2019-05-19T14:25:03.677Z,20.17
2019-05-19T14:27:31.121Z,20.16
2019-05-19T14:29:58.328Z,20.20
2019-05-19T14:32:25.403Z,20.16
2019-05-19T14:34:52.483Z,20.08
2019-05-19T14:37:19.573Z,19.94
2019-05-19T14:39:48.571Z,19.82
2019-05-19T14:42:35.229Z,19.79
2019-05-19T14:45:03.230Z,19.75
2019-05-19T14:47:30.305Z,19.62
2019-05-19T14:49:59.280Z,19.52
2019-05-19T14:52:26.349Z,19.48
2019-05-19T14:54:55.248Z,19.38
2019-05-19T14:57:22.338Z,19.29
2019-05-19T14:59:49.409Z,19.23
2019-05-19T15:02:19.924Z,19.18
2019-05-19T15:04:46.549Z,19.14
2019-05-19T15:07:13.648Z,19.09
2019-05-19T15:09:40.838Z,19.03
2019-05-19T15:12:07.905Z,18.98
2019-05-19T15:14:35.014Z,18.89
2019-05-19T15:17:02.116Z,18.85
2019-05-19T15:19:29.208Z,18.79
2019-05-19T15:21:56.295Z,18.76
2019-05-19T15:24:23.364Z,18.75
2019-05-19T15:26:50.533Z,18.75
2019-05-19T15:29:17.759Z,18.75
2019-05-19T15:31:44.901Z,18.72
2019-05-19T15:34:12.068Z,18.74
2019-05-19T15:36:39.216Z,18.76
2019-05-19T15:39:06.447Z,18.78
2019-05-19T15:41:33.549Z,18.80
2019-05-19T15:44:00.760Z,18.84
2019-05-19T15:46:27.835Z,18.93
2019-05-19T15:48:54.941Z,19.01
2019-05-19T15:51:28.656Z,19.02
2019-05-19T15:53:55.759Z,19.03
2019-05-19T15:56:22.963Z,19.02
2019-05-19T15:58:50.075Z,18.99
2019-05-19T16:01:17.216Z,19.02
2019-05-19T16:03:44.578Z,19.04
2019-05-19T16:06:14.673Z,19.06
2019-05-19T16:08:46.197Z,19.07
2019-05-19T16:11:13.422Z,19.05
2019-05-19T16:13:43.236Z,19.04
2019-05-19T16:16:12.187Z,19.05
2019-05-19T16:18:41.132Z,19.03
2019-05-19T16:21:08.621Z,19.03
2019-05-19T16:23:35.899Z,19.03
2019-05-19T16:26:05.856Z,19.03
2019-05-19T16:28:33.235Z,19.02
2019-05-19T16:31:06.002Z,19.00
2019-05-19T16:33:36.222Z,19.00
2019-05-19T16:36:07.569Z,19.00
2019-05-19T16:38:34.174Z,19.03
2019-05-19T16:41:05.581Z,19.05
2019-05-19T16:43:35.218Z,19.05
2019-05-19T16:46:04.712Z,19.03
2019-05-19T16:48:35.718Z,19.01
2019-05-19T16:51:02.939Z,19.03
2019-05-19T16:53:31.776Z,19.02
2019-05-19T16:55:59.054Z,19.03
2019-05-19T16:58:26.290Z,19.01
2019-05-19T17:00:57.408Z,19.01
2019-05-19T17:03:25.727Z,18.99
2019-05-19T17:05:53.042Z,18.98
2019-05-19T17:08:20.194Z,18.94
2019-05-19T17:10:49.981Z,18.92
2019-05-19T17:13:19.480Z,18.91
2019-05-19T17:15:54.244Z,18.91
2019-05-19T17:18:24.064Z,18.89
2019-05-19T17:20:52.133Z,18.88
2019-05-19T17:23:24.909Z,18.87
2019-05-19T17:25:52.036Z,18.83
2019-05-19T17:28:21.391Z,18.85
2019-05-19T17:30:53.823Z,18.83
2019-05-19T17:33:20.931Z,18.81
2019-05-19T17:35:48.046Z,18.79
2019-05-19T17:38:15.185Z,18.78
2019-05-19T17:40:47.123Z,18.76
2019-05-19T17:43:14.223Z,18.71
2019-05-19T17:45:41.318Z,18.68
2019-05-19T17:48:10.287Z,18.64
2019-05-19T17:50:37.443Z,18.60
2019-05-19T17:53:04.553Z,18.55
2019-05-19T17:55:32.862Z,18.50
2019-05-19T17:58:01.036Z,18.44
2019-05-19T18:00:34.314Z,18.40
2019-05-19T18:03:01.384Z,18.35
2019-05-19T18:05:28.490Z,18.31
2019-05-19T18:07:55.533Z,18.29
2019-05-19T18:10:29.403Z,18.26
2019-05-19T18:12:58.295Z,18.23
2019-05-19T18:15:25.424Z,18.21
2019-05-19T18:17:55.609Z,18.17
2019-05-19T18:20:24.012Z,18.11
2019-05-19T18:22:51.482Z,18.08
2019-05-19T18:25:21.577Z,18.04
2019-05-19T18:27:48.748Z,18.00
2019-05-19T18:30:23.373Z,17.96
2019-05-19T18:32:50.452Z,17.92
2019-05-19T18:35:17.509Z,17.86
2019-05-19T18:37:44.580Z,17.81
2019-05-19T18:40:11.697Z,17.77
2019-05-19T18:42:43.842Z,17.73
2019-05-19T18:45:11.120Z,17.66
2019-05-19T18:47:45.494Z,17.58
2019-05-19T18:50:12.822Z,17.53
2019-05-19T18:52:39.868Z,17.48
2019-05-19T18:55:07.133Z,17.43
2019-05-19T18:57:34.265Z,17.38
2019-05-19T19:00:04.495Z,17.34
2019-05-19T19:02:38.634Z,17.31
2019-05-19T19:05:08.283Z,17.26
2019-05-19T19:07:54.171Z,17.22
2019-05-19T19:10:31.439Z,17.20
2019-05-19T19:13:05.526Z,17.17
2019-05-19T19:15:38.668Z,17.15
2019-05-19T19:18:08.657Z,17.14
2019-05-19T19:21:02.801Z,17.12
2019-05-19T19:23:29.872Z,17.13
2019-05-19T19:26:08.815Z,17.09
2019-05-19T19:28:37.028Z,17.08
2019-05-19T19:31:16.559Z,17.06
2019-05-19T19:33:48.311Z,17.06
2019-05-19T19:36:15.383Z,17.05
2019-05-19T19:38:42.463Z,17.04
2019-05-19T19:41:09.531Z,17.01
2019-05-19T19:43:38.563Z,16.99
2019-05-19T19:46:06.671Z,16.96
2019-05-19T19:48:33.744Z,16.95
2019-05-19T19:51:00.837Z,16.94
2019-05-19T19:53:27.923Z,16.93
2019-05-19T19:55:55.017Z,16.90
2019-05-19T19:58:22.204Z,16.89
2019-05-19T20:00:49.274Z,16.86
2019-05-19T20:03:16.368Z,16.84
2019-05-19T20:05:43.482Z,16.81
2019-05-19T20:08:12.864Z,16.79
2019-05-19T20:10:40.441Z,16.76
2019-05-19T20:13:07.585Z,16.75
2019-05-19T20:15:35.533Z,16.73
2019-05-19T20:18:02.613Z,16.69
2019-05-19T20:20:29.671Z,16.67
2019-05-19T20:22:56.828Z,16.64
2019-05-19T20:25:23.957Z,16.62
2019-05-19T20:27:51.053Z,16.59
2019-05-19T20:30:33.660Z,16.56
2019-05-19T20:32:47.205Z,16.52
2019-05-19T20:35:15.752Z,16.49
2019-05-19T20:37:45.721Z,16.45
2019-05-19T20:40:13.237Z,16.43
2019-05-19T20:42:40.313Z,16.38
2019-05-19T20:45:07.682Z,16.34
2019-05-19T20:47:34.745Z,16.30
2019-05-19T20:50:02.087Z,16.25
2019-05-19T20:52:29.351Z,16.21
2019-05-19T20:54:56.403Z,16.14
2019-05-19T20:57:23.478Z,16.07
2019-05-19T20:59:51.805Z,16.03
2019-05-19T21:02:18.895Z,15.97
2019-05-19T21:04:45.976Z,15.92
2019-05-19T21:07:14.150Z,15.87
2019-05-19T21:09:41.235Z,15.81
2019-05-19T21:12:08.315Z,15.77
2019-05-19T21:14:35.430Z,15.72
2019-05-19T21:17:02.554Z,15.67
2019-05-19T21:19:29.619Z,15.63
2019-05-19T21:21:56.799Z,15.59
2019-05-19T21:24:24.995Z,15.56
2019-05-19T21:26:52.063Z,15.50
2019-05-19T21:29:19.179Z,15.44
2019-05-19T21:31:46.223Z,15.39
2019-05-19T21:34:13.327Z,15.35
2019-05-19T21:36:40.380Z,15.31
2019-05-19T21:39:07.483Z,15.28
2019-05-19T21:41:34.537Z,15.22
2019-05-19T21:44:03.917Z,15.19
2019-05-19T21:46:33.067Z,15.15
2019-05-19T21:49:00.128Z,15.12
2019-05-19T21:51:27.239Z,15.07
2019-05-19T21:53:54.332Z,15.04
2019-05-19T21:56:21.392Z,15.02
2019-05-19T21:58:48.492Z,14.98
2019-05-19T22:01:23.124Z,14.94
2019-05-19T22:03:44.549Z,14.91
2019-05-19T22:06:11.658Z,14.86
2019-05-19T22:08:38.723Z,14.80
2019-05-19T22:11:05.786Z,14.76
2019-05-19T22:13:32.873Z,14.72
2019-05-19T22:16:12.203Z,14.67
2019-05-19T22:18:28.918Z,14.64
2019-05-19T22:20:56.003Z,14.60
2019-05-19T22:23:23.050Z,14.57
2019-05-19T22:25:50.118Z,14.54
2019-05-19T22:28:17.254Z,14.51
2019-05-19T22:30:44.319Z,14.48
2019-05-19T22:33:11.724Z,14.47
2019-05-19T22:35:38.926Z,14.45
2019-05-19T22:38:10.456Z,14.42
2019-05-19T22:40:38.947Z,14.39
2019-05-19T22:43:09.048Z,14.36
2019-05-19T22:45:36.320Z,14.31
2019-05-19T22:48:08.212Z,14.26
2019-05-19T22:50:35.300Z,14.20
2019-05-19T22:53:06.293Z,14.18
2019-05-19T22:55:33.404Z,14.17
2019-05-19T22:58:42.517Z,14.16
2019-05-19T23:00:45.683Z,14.17
2019-05-19T23:03:12.840Z,14.17
2019-05-19T23:05:39.916Z,14.16
2019-05-19T23:08:07.063Z,14.15
2019-05-19T23:10:34.218Z,14.13
2019-05-19T23:13:01.241Z,14.10
2019-05-19T23:15:46.126Z,14.08
2019-05-19T23:18:14.851Z,14.05
2019-05-19T23:20:41.995Z,14.01
2019-05-19T23:23:10.973Z,13.98
2019-05-19T23:25:39.132Z,13.96
2019-05-19T23:28:06.204Z,13.92
2019-05-19T23:30:34.827Z,13.86
2019-05-19T23:33:07.217Z,13.84
2019-05-19T23:35:36.918Z,13.82
2019-05-19T23:38:04.161Z,13.78
2019-05-19T23:40:32.495Z,13.71
2019-05-19T23:42:59.665Z,13.68
2019-05-19T23:45:26.858Z,13.67
2019-05-19T23:47:54.050Z,13.68
2019-05-19T23:50:21.370Z,13.65
2019-05-19T23:52:48.456Z,13.62
2019-05-19T23:55:19.590Z,13.60
2019-05-19T23:57:49.134Z,13.59
